Terminal Aerodrome Forecast
Issued by NWS Sterling, VA

Current Version | Previous Version | Graphics & Text | Print | Product List | Glossary On
Versions: 1 2 3 4 5 6 7 8 9 10 11 12 13 14 15 16 17 18 19 20 21 22 23 24 25
000
FTUS41 KLWX 291448 AAA
TAFDCA
TAF AMD
KDCA 291448Z 2915/3012 06004KT 2SM BR OVC008
     FM292000 08004KT P6SM OVC015
     FM300000 07005KT P6SM -DZ OVC020
     FM300300 06005KT P6SM -DZ OVC008
     FM301000 04005KT 3SM BR OVC008=

USA.gov is the U.S. government's official web portal to all federal, state and local government web resources and services.